8WI7 weather

Flying Floats Base Seaplane Base
Three Lakes, Wisconsin, United States

Public forecast

Using degrees Fahrenheit for public forecast. Weather courtesy of forecast.io.

Closest aviation weather report (METAR) to Flying Floats Base Seaplane Base

Closest report is Eagle River Union Airport, 6.6 nm (12.2 km) NW. Retrieved 2019/10/14 19:35 UTC (0 seconds ago):

KEGV 141935Z AUTO 28008KT 10SM CLR 07/M03 A2993 RMK AO2 T00721033

Closest aviation forecast (TAF) to Flying Floats Base Seaplane Base

Closest forecast is Rhinelander Oneida County Airport, 19.5 nm (36.1 km) SW. Retrieved 2019/10/14 18:22 UTC (1 hour ago):

TAF KRHI 141720Z 1418/1518 26008KT P6SM SCT025 FM142300 22003KT P6SM SCT250 FM150300 18005KT P6SM BKN120 FM150600 13008KT P6SM BKN060 FM150900 12007KT P6SM -RA OVC035 WS019/18035KT FM151300 13008G13KT 6SM -RA OVC012 WS019/18035KT FM151500 14007G14KT 4SM -RA OVC004